createdAt,value
2023-05-08T00:01:27.132Z,42.57
2023-05-08T00:03:58.423Z,41.93
2023-05-08T00:06:28.202Z,45.10
2023-05-08T00:08:58.307Z,33.90
2023-05-08T00:11:27.150Z,42.70
2023-05-08T00:13:55.923Z,37.30
2023-05-08T00:16:24.810Z,43.40
2023-05-08T00:18:54.270Z,37.83
2023-05-08T00:21:25.120Z,35.47
2023-05-08T00:23:53.832Z,38.33
2023-05-08T00:26:23.887Z,51.33
2023-05-08T00:28:52.518Z,38.07
2023-05-08T00:31:21.286Z,41.13
2023-05-08T00:33:50.008Z,38.73
2023-05-08T00:36:18.740Z,40.13
2023-05-08T00:38:47.406Z,36.43
2023-05-08T00:41:16.129Z,47.87
2023-05-08T00:43:46.162Z,49.80
2023-05-08T00:46:15.635Z,43.10
2023-05-08T00:48:45.231Z,40.03
2023-05-08T00:51:15.467Z,46.37
2023-05-08T00:53:45.567Z,48.77
2023-05-08T00:56:16.948Z,41.27
2023-05-08T00:58:48.183Z,40.30
2023-05-08T01:01:19.650Z,35.53
2023-05-08T01:03:48.881Z,44.67
2023-05-08T01:06:17.687Z,42.50
2023-05-08T01:08:46.826Z,43.50
2023-05-08T01:11:22.144Z,42.90
2023-05-08T01:14:13.637Z,44.60
2023-05-08T01:16:48.306Z,52.50
2023-05-08T01:19:54.149Z,43.57
2023-05-08T01:22:40.128Z,43.00
2023-05-08T01:25:47.598Z,41.77
2023-05-08T01:28:43.223Z,44.00
2023-05-08T01:31:22.444Z,47.63
2023-05-08T01:33:58.068Z,42.17
2023-05-08T01:36:42.464Z,46.53
2023-05-08T01:39:18.523Z,43.03
2023-05-08T01:41:59.625Z,47.47
2023-05-08T01:44:35.747Z,51.13
2023-05-08T01:47:08.516Z,46.47
2023-05-08T01:49:43.354Z,52.27
2023-05-08T01:52:18.254Z,42.17
2023-05-08T01:54:56.542Z,42.50
2023-05-08T01:57:29.051Z,47.73
2023-05-08T02:00:00.964Z,44.37
2023-05-08T02:02:34.045Z,47.93
2023-05-08T02:05:06.548Z,33.03
2023-05-08T02:07:38.182Z,52.27
2023-05-08T02:10:11.547Z,48.63
2023-05-08T02:12:41.422Z,47.37
2023-05-08T02:15:13.869Z,47.43
2023-05-08T02:17:49.810Z,48.53
2023-05-08T02:20:35.384Z,41.90
2023-05-08T02:23:04.700Z,58.97
2023-05-08T02:25:34.676Z,52.43
2023-05-08T02:28:04.766Z,52.30
2023-05-08T02:30:35.166Z,43.53
2023-05-08T02:33:06.459Z,43.90
2023-05-08T02:35:38.600Z,51.33
2023-05-08T02:38:16.451Z,52.03
2023-05-08T02:40:48.672Z,45.57
2023-05-08T02:43:17.748Z,42.27
2023-05-08T02:45:50.928Z,41.40
2023-05-08T02:48:26.301Z,38.33
2023-05-08T02:51:03.352Z,41.57
2023-05-08T02:53:37.010Z,55.53
2023-05-08T02:56:12.095Z,43.77
2023-05-08T02:58:45.862Z,59.17
2023-05-08T03:01:30.269Z,47.30
2023-05-08T03:04:04.017Z,43.63
2023-05-08T03:06:41.648Z,51.43
2023-05-08T03:09:19.710Z,42.23
2023-05-08T03:11:51.529Z,54.17
2023-05-08T03:14:23.922Z,43.43
2023-05-08T03:16:55.233Z,44.80
2023-05-08T03:19:28.518Z,44.57
2023-05-08T03:22:00.583Z,44.17
2023-05-08T03:24:30.949Z,42.33
2023-05-08T03:27:03.544Z,49.30
2023-05-08T03:29:35.566Z,43.03
2023-05-08T03:32:07.552Z,47.67
2023-05-08T03:34:37.625Z,46.77
2023-05-08T03:37:08.056Z,47.20
2023-05-08T03:39:36.810Z,57.30
2023-05-08T03:42:05.772Z,43.53
2023-05-08T03:44:35.407Z,51.57
2023-05-08T03:47:06.167Z,44.03
2023-05-08T03:49:36.616Z,57.20
2023-05-08T03:52:07.529Z,44.27
2023-05-08T03:54:36.164Z,54.47
2023-05-08T03:57:04.888Z,49.50
2023-05-08T03:59:43.593Z,59.70
2023-05-08T04:02:21.019Z,43.37
2023-05-08T04:04:54.150Z,45.00
2023-05-08T04:07:30.132Z,31.40
2023-05-08T04:10:09.351Z,49.17
2023-05-08T04:12:46.294Z,51.97
2023-05-08T04:15:21.906Z,43.93
2023-05-08T04:17:53.180Z,42.10
2023-05-08T04:20:25.500Z,44.00
2023-05-08T04:22:57.065Z,49.53
2023-05-08T04:25:26.383Z,37.20
2023-05-08T04:27:56.193Z,49.70
2023-05-08T04:30:26.056Z,39.63
2023-05-08T04:32:55.312Z,41.83
2023-05-08T04:35:24.278Z,54.57
2023-05-08T04:37:53.518Z,43.17
2023-05-08T04:40:25.267Z,43.33
2023-05-08T04:42:53.931Z,36.83
2023-05-08T04:45:28.475Z,49.90
2023-05-08T04:47:57.297Z,45.77
2023-05-08T04:50:26.225Z,45.40
2023-05-08T04:52:55.899Z,46.73
2023-05-08T04:55:26.089Z,34.40
2023-05-08T04:57:54.784Z,42.87
2023-05-08T05:00:26.389Z,47.87
2023-05-08T05:02:56.560Z,45.33
2023-05-08T05:05:38.713Z,47.60
2023-05-08T05:08:10.943Z,45.37
2023-05-08T05:10:41.387Z,54.83
2023-05-08T05:13:10.248Z,52.30
2023-05-08T05:15:39.135Z,57.83
2023-05-08T05:18:08.129Z,54.00
2023-05-08T05:20:37.444Z,52.53
2023-05-08T05:23:06.298Z,59.27
2023-05-08T05:25:36.291Z,53.73
2023-05-08T05:28:06.665Z,51.83
2023-05-08T05:30:35.891Z,48.33
2023-05-08T05:33:04.651Z,49.47
2023-05-08T05:35:33.440Z,49.73
2023-05-08T05:38:02.337Z,50.17
2023-05-08T05:40:30.976Z,54.60
2023-05-08T05:43:02.190Z,46.93
2023-05-08T05:45:33.561Z,51.30
2023-05-08T05:48:02.604Z,45.80
2023-05-08T05:50:31.559Z,49.57
2023-05-08T05:53:00.590Z,48.40
2023-05-08T05:55:30.009Z,57.93
2023-05-08T05:58:00.536Z,45.27
2023-05-08T06:00:30.746Z,39.97
2023-05-08T06:03:02.583Z,48.57
2023-05-08T06:05:31.561Z,47.90
2023-05-08T06:08:00.593Z,41.67
2023-05-08T06:10:29.493Z,41.40
2023-05-08T06:12:58.234Z,40.00
2023-05-08T06:15:27.463Z,40.87
2023-05-08T06:17:56.254Z,43.47
2023-05-08T06:20:26.892Z,40.77
2023-05-08T06:22:55.786Z,38.70
2023-05-08T06:25:26.043Z,35.83
2023-05-08T06:27:54.731Z,37.30
2023-05-08T06:30:23.881Z,36.83
2023-05-08T06:32:52.571Z,33.13
2023-05-08T06:35:21.709Z,36.27
2023-05-08T06:37:52.021Z,35.93
2023-05-08T06:40:21.027Z,35.37
2023-05-08T06:42:49.711Z,29.43
2023-05-08T06:45:18.395Z,37.23
2023-05-08T06:47:47.094Z,52.10
2023-05-08T06:50:15.888Z,52.63
2023-05-08T06:52:45.859Z,51.50
2023-05-08T06:55:16.977Z,45.73
2023-05-08T06:57:45.717Z,48.33
2023-05-08T07:00:15.405Z,47.43
2023-05-08T07:02:45.892Z,43.23
2023-05-08T07:05:15.246Z,39.87
2023-05-08T07:07:57.702Z,42.77
2023-05-08T07:10:30.696Z,32.23
2023-05-08T07:12:59.749Z,33.87
2023-05-08T07:15:31.970Z,35.50
2023-05-08T07:18:02.745Z,38.37
2023-05-08T07:20:32.251Z,38.63
2023-05-08T07:23:01.332Z,38.27
2023-05-08T07:25:31.682Z,39.87
2023-05-08T07:28:02.623Z,41.27
2023-05-08T07:30:31.680Z,39.93
2023-05-08T07:33:00.568Z,37.40
2023-05-08T07:35:29.970Z,37.97
2023-05-08T07:37:59.097Z,33.37
2023-05-08T07:40:28.004Z,42.80
2023-05-08T07:42:58.095Z,42.87
2023-05-08T07:45:27.212Z,36.47
2023-05-08T07:47:57.516Z,38.13
2023-05-08T07:50:29.668Z,43.33
2023-05-08T07:52:58.630Z,43.47
2023-05-08T07:55:27.420Z,38.23
2023-05-08T07:57:57.649Z,41.67
2023-05-08T08:00:27.493Z,42.20
2023-05-08T08:02:56.852Z,44.17
2023-05-08T08:05:28.617Z,34.43
2023-05-08T08:07:57.973Z,38.77
2023-05-08T08:10:27.461Z,38.67
2023-05-08T08:12:57.811Z,32.17
2023-05-08T08:15:28.636Z,37.70
2023-05-08T08:18:00.501Z,43.20
2023-05-08T08:20:29.621Z,34.47
2023-05-08T08:22:58.816Z,35.80
2023-05-08T08:25:28.128Z,36.07
2023-05-08T08:27:58.544Z,38.80
2023-05-08T08:30:27.617Z,38.83
2023-05-08T08:32:56.486Z,42.03
2023-05-08T08:35:29.465Z,39.97
2023-05-08T08:37:58.730Z,38.17
2023-05-08T08:40:30.668Z,44.13
2023-05-08T08:43:01.073Z,49.23
2023-05-08T08:45:32.749Z,36.73
2023-05-08T08:48:04.008Z,41.10
2023-05-08T08:50:35.097Z,41.17
2023-05-08T08:53:11.884Z,38.47
2023-05-08T08:55:47.308Z,47.40
2023-05-08T08:58:23.113Z,44.67
2023-05-08T09:00:54.720Z,48.10
2023-05-08T09:03:27.050Z,47.13
2023-05-08T09:05:56.956Z,55.30
2023-05-08T09:08:26.013Z,58.10
2023-05-08T09:10:56.924Z,59.07
2023-05-08T09:13:27.434Z,48.93
2023-05-08T09:15:56.427Z,57.47
2023-05-08T09:18:25.679Z,54.27
2023-05-08T09:20:54.999Z,55.33
2023-05-08T09:23:23.843Z,53.77
2023-05-08T09:25:53.436Z,52.23
2023-05-08T09:28:26.372Z,51.33
2023-05-08T09:30:57.737Z,56.37
2023-05-08T09:33:27.770Z,54.90
2023-05-08T09:35:57.689Z,45.90
2023-05-08T09:38:40.500Z,54.80
2023-05-08T09:41:10.663Z,59.77
2023-05-08T09:43:39.809Z,53.93
2023-05-08T09:46:27.048Z,52.47
2023-05-08T09:48:58.361Z,53.67
2023-05-08T09:51:28.579Z,49.30
2023-05-08T09:53:59.929Z,58.10
2023-05-08T09:56:35.696Z,53.20
2023-05-08T09:59:06.463Z,60.90
2023-05-08T10:01:39.935Z,61.40
2023-05-08T10:04:08.888Z,60.43
2023-05-08T10:06:37.639Z,50.43
2023-05-08T10:09:10.884Z,51.70
2023-05-08T10:11:40.836Z,67.43
2023-05-08T10:14:10.072Z,54.60
2023-05-08T10:16:45.097Z,59.13
2023-05-08T10:19:16.165Z,58.90
2023-05-08T10:21:48.280Z,60.70
2023-05-08T10:24:19.198Z,50.67
2023-05-08T10:27:07.084Z,59.03
2023-05-08T10:29:44.067Z,58.43
2023-05-08T10:32:16.399Z,58.30
2023-05-08T10:34:48.040Z,62.57
2023-05-08T10:37:18.595Z,60.97
2023-05-08T10:39:49.159Z,60.03
2023-05-08T10:42:17.978Z,47.73
2023-05-08T10:44:47.017Z,55.63
2023-05-08T10:47:22.884Z,59.63
2023-05-08T10:49:59.889Z,59.70
2023-05-08T12:55:53.284Z,59.20
2023-05-08T12:58:25.916Z,63.73
2023-05-08T13:01:04.591Z,54.60
2023-05-08T13:03:34.230Z,59.07
2023-05-08T13:06:03.274Z,53.10
2023-05-08T13:08:33.053Z,53.10
2023-05-08T13:11:04.432Z,48.47
2023-05-08T13:13:35.359Z,56.80
2023-05-08T13:16:05.499Z,53.60
2023-05-08T13:18:36.238Z,55.47
2023-05-08T13:21:05.185Z,57.27
2023-05-08T13:23:33.921Z,57.67
2023-05-08T13:26:04.165Z,50.30
2023-05-08T13:28:32.960Z,46.77
2023-05-08T13:31:01.709Z,50.53
2023-05-08T13:33:30.475Z,50.60
2023-05-08T13:35:59.304Z,52.67
2023-05-08T13:38:28.018Z,54.70
2023-05-08T13:40:56.685Z,59.17
2023-05-08T13:43:26.934Z,52.90
2023-05-08T13:45:55.581Z,49.90
2023-05-08T13:48:24.745Z,54.40
2023-05-08T13:50:53.517Z,55.27
2023-05-08T13:53:22.199Z,53.13
2023-05-08T13:55:51.136Z,49.50
2023-05-08T13:58:19.743Z,54.10
2023-05-08T14:00:49.968Z,49.20
2023-05-08T14:03:18.775Z,43.57
2023-05-08T14:05:47.543Z,54.13
2023-05-08T14:08:16.371Z,48.40
2023-05-08T14:10:44.988Z,43.20
2023-05-08T14:13:13.691Z,54.63
2023-05-08T14:15:42.573Z,49.13
2023-05-08T14:18:12.695Z,53.57
2023-05-08T14:20:41.452Z,54.63
2023-05-08T14:23:10.659Z,52.73
2023-05-08T14:25:39.298Z,52.90
2023-05-08T14:28:07.894Z,51.53
2023-05-08T14:30:36.492Z,53.73
2023-05-08T14:33:05.387Z,55.60
2023-05-08T14:35:35.423Z,56.20
2023-05-08T14:38:04.470Z,56.37
2023-05-08T14:40:33.083Z,56.10
2023-05-08T14:43:01.682Z,57.13
2023-05-08T14:45:30.326Z,60.57
2023-05-08T14:47:58.999Z,65.63
2023-05-08T14:50:27.908Z,61.37
2023-05-08T14:52:57.983Z,65.00
2023-05-08T14:55:27.126Z,68.03
2023-05-08T14:57:56.400Z,63.43
2023-05-08T15:00:25.299Z,71.53
2023-05-08T15:02:54.344Z,65.30
2023-05-08T15:05:23.356Z,64.97
2023-05-08T15:08:12.155Z,64.23
2023-05-08T15:10:41.532Z,66.20
2023-05-08T15:13:10.285Z,61.20
2023-05-08T15:15:38.852Z,68.27
2023-05-08T15:18:07.567Z,66.60
2023-05-08T15:20:36.293Z,72.23
2023-05-08T15:23:04.926Z,64.73
2023-05-08T15:25:34.953Z,65.57
2023-05-08T15:28:03.569Z,69.13
2023-05-08T15:30:32.243Z,71.83
2023-05-08T15:33:01.084Z,70.57
2023-05-08T15:35:29.899Z,69.70
2023-05-08T15:37:58.609Z,65.33
2023-05-08T15:40:27.229Z,66.50
2023-05-08T15:42:57.408Z,57.50
2023-05-08T15:45:26.116Z,46.27
2023-05-08T15:47:54.765Z,65.57
2023-05-08T15:50:23.610Z,60.63
2023-05-08T15:52:52.374Z,69.50
2023-05-08T15:55:23.301Z,66.03
2023-05-08T15:57:52.178Z,64.33
2023-05-08T16:00:25.066Z,67.83
2023-05-08T16:02:55.974Z,58.70
2023-05-08T16:05:24.639Z,60.23
2023-05-08T16:07:54.379Z,67.93
2023-05-08T16:10:23.068Z,61.33
2023-05-08T16:12:51.854Z,77.57
2023-05-08T16:15:22.066Z,63.67
2023-05-08T16:17:50.789Z,65.27
2023-05-08T16:20:19.531Z,63.83
2023-05-08T16:22:48.119Z,56.63
2023-05-08T16:25:16.776Z,57.73
2023-05-08T16:27:45.359Z,62.30
2023-05-08T16:30:14.598Z,59.67
2023-05-08T16:32:45.806Z,52.37
2023-05-08T16:35:15.066Z,63.33
2023-05-08T16:37:44.182Z,64.90
2023-05-08T16:40:13.732Z,60.37
2023-05-08T16:42:42.372Z,58.53
2023-05-08T16:45:12.056Z,62.57
2023-05-08T16:47:40.873Z,65.43
2023-05-08T16:50:11.961Z,64.70
2023-05-08T16:52:40.632Z,55.70
2023-05-08T16:55:11.200Z,61.00
2023-05-08T16:57:39.904Z,62.30
2023-05-08T17:00:09.685Z,61.67
2023-05-08T17:02:39.018Z,63.67
2023-05-08T17:05:08.341Z,58.97
2023-05-08T17:07:38.292Z,61.33
2023-05-08T17:10:08.176Z,63.23
2023-05-08T17:12:37.009Z,59.03
2023-05-08T17:15:06.601Z,68.27
2023-05-08T17:17:35.306Z,64.80
2023-05-08T17:20:05.236Z,56.97
2023-05-08T17:22:33.945Z,60.17
2023-05-08T17:25:03.893Z,62.10
2023-05-08T17:27:34.826Z,60.50
2023-05-08T17:30:04.154Z,64.43
2023-05-08T17:32:32.901Z,65.03
2023-05-08T17:35:01.680Z,55.87
2023-05-08T17:37:30.289Z,57.90
2023-05-08T17:39:58.919Z,71.57
2023-05-08T17:42:28.930Z,58.20
2023-05-08T17:44:57.693Z,57.20
2023-05-08T17:47:26.388Z,63.33
2023-05-08T17:49:57.241Z,69.73
2023-05-08T17:52:25.983Z,60.23
2023-05-08T17:54:54.830Z,67.57
2023-05-08T17:57:23.700Z,52.67
2023-05-08T17:59:54.158Z,53.90
2023-05-08T18:02:23.052Z,55.40
2023-05-08T18:04:52.012Z,60.00
2023-05-08T18:07:21.185Z,65.13
2023-05-08T18:09:49.826Z,51.70
2023-05-08T18:12:18.496Z,63.23
2023-05-08T18:14:48.057Z,68.40
2023-05-08T18:17:19.325Z,58.60
2023-05-08T18:19:48.162Z,54.90
2023-05-08T18:22:17.032Z,61.80
2023-05-08T18:24:45.757Z,52.47
2023-05-08T18:27:14.469Z,59.23
2023-05-08T18:29:43.092Z,66.73
2023-05-08T18:32:12.263Z,55.17
2023-05-08T18:34:42.377Z,56.33
2023-05-08T18:37:11.150Z,61.03
2023-05-08T18:39:39.880Z,48.63
2023-05-08T18:42:08.774Z,33.90
2023-05-08T18:44:39.135Z,35.10
2023-05-08T18:47:08.710Z,34.47
2023-05-08T18:49:37.611Z,27.53
2023-05-08T18:52:07.756Z,28.87
2023-05-08T18:54:36.694Z,29.93
2023-05-08T18:57:05.517Z,31.10
2023-05-08T18:59:35.469Z,32.97
2023-05-08T19:02:09.088Z,38.83
2023-05-08T19:04:37.918Z,35.10
2023-05-08T19:07:08.125Z,41.87
2023-05-08T19:09:38.741Z,29.50
2023-05-08T19:12:07.527Z,30.10
2023-05-08T19:14:36.200Z,30.80
2023-05-08T19:17:04.943Z,36.97
2023-05-08T19:19:33.698Z,44.10
2023-05-08T19:22:02.464Z,37.40
2023-05-08T19:24:33.399Z,35.03
2023-05-08T19:27:02.111Z,34.83
2023-05-08T19:29:30.754Z,41.93
2023-05-08T19:32:05.649Z,43.43
2023-05-08T19:34:37.159Z,43.90
2023-05-08T19:37:06.374Z,44.07
2023-05-08T19:39:36.428Z,48.83
2023-05-08T19:42:24.027Z,43.17
2023-05-08T19:44:53.149Z,39.93
2023-05-08T19:47:21.831Z,37.63
2023-05-08T19:49:54.381Z,41.03
2023-05-08T19:52:23.112Z,41.90
2023-05-08T19:54:53.430Z,40.13
2023-05-08T19:57:24.985Z,51.53
2023-05-08T19:59:53.958Z,45.20
2023-05-08T20:02:22.979Z,60.07
2023-05-08T20:05:18.779Z,72.50
2023-05-08T20:07:48.582Z,72.07
2023-05-08T20:10:23.584Z,74.93
2023-05-08T20:12:52.696Z,75.87
2023-05-08T20:15:21.635Z,76.23
2023-05-08T20:17:50.408Z,99.17
2023-05-08T20:20:19.121Z,73.43
2023-05-08T20:22:49.265Z,85.70
2023-05-08T20:25:19.419Z,87.70
2023-05-08T20:27:48.196Z,77.30
2023-05-08T20:30:17.004Z,83.07
2023-05-08T20:32:45.907Z,92.37
2023-05-08T20:35:14.917Z,69.20
2023-05-08T20:37:48.330Z,80.47
2023-05-08T20:40:18.684Z,92.30
2023-05-08T20:42:47.444Z,91.17
2023-05-08T20:45:16.174Z,91.57
2023-05-08T20:47:44.937Z,91.30
2023-05-08T20:50:14.317Z,76.23
2023-05-08T20:52:43.226Z,84.77
2023-05-08T20:55:12.299Z,80.70
2023-05-08T20:57:42.817Z,77.67
2023-05-08T21:00:12.450Z,82.97
2023-05-08T21:02:42.758Z,82.23
2023-05-08T21:05:11.687Z,96.30
2023-05-08T21:07:42.147Z,95.17
2023-05-08T21:10:11.638Z,94.87
2023-05-08T21:12:40.467Z,85.63
2023-05-08T21:15:13.508Z,92.13
2023-05-08T21:17:43.661Z,99.23
2023-05-08T21:20:13.469Z,89.37
2023-05-08T21:22:42.414Z,92.57
2023-05-08T21:25:12.575Z,94.13
2023-05-08T21:27:43.360Z,87.57
2023-05-08T21:30:16.531Z,97.23
2023-05-08T21:32:48.086Z,82.87
2023-05-08T21:35:17.033Z,90.87
2023-05-08T21:37:45.948Z,92.93
2023-05-08T21:40:14.913Z,91.07
2023-05-08T21:42:43.563Z,85.87
2023-05-08T21:45:14.125Z,86.10
2023-05-08T21:47:42.989Z,107.07
2023-05-08T21:50:12.228Z,83.17
2023-05-08T21:52:41.045Z,93.20
2023-05-08T21:55:10.553Z,88.37
2023-05-08T21:57:39.833Z,107.20
2023-05-08T22:00:10.072Z,97.90
2023-05-08T22:02:40.183Z,78.73
2023-05-08T22:05:12.679Z,85.63
2023-05-08T22:07:42.056Z,73.60
2023-05-08T22:10:14.056Z,104.63
2023-05-08T22:12:42.765Z,92.33
2023-05-08T22:15:25.585Z,101.07
2023-05-08T22:17:59.121Z,84.07
2023-05-08T22:20:27.821Z,114.80
2023-05-08T22:22:56.574Z,94.47
2023-05-08T22:25:25.653Z,88.57
2023-05-08T22:27:57.034Z,79.37
2023-05-08T22:30:25.710Z,70.03
2023-05-08T22:32:56.221Z,87.40
2023-05-08T22:35:27.948Z,92.03
2023-05-08T22:37:58.228Z,97.00
2023-05-08T22:40:27.309Z,86.93
2023-05-08T22:43:04.733Z,93.97
2023-05-08T22:45:34.119Z,94.33
2023-05-08T22:48:02.888Z,96.10
2023-05-08T22:50:32.987Z,88.07
2023-05-08T22:53:04.055Z,99.30
2023-05-08T22:55:32.744Z,89.63
2023-05-08T22:58:01.392Z,81.97
2023-05-08T23:00:30.110Z,87.23
2023-05-08T23:02:59.120Z,109.60
2023-05-08T23:05:27.788Z,82.20
2023-05-08T23:07:57.779Z,79.13
2023-05-08T23:10:26.557Z,88.57
2023-05-08T23:12:55.264Z,84.50
2023-05-08T23:15:24.161Z,84.53
2023-05-08T23:17:52.980Z,91.13
2023-05-08T23:20:21.863Z,85.10
2023-05-08T23:22:50.546Z,73.80
2023-05-08T23:25:20.543Z,88.80
2023-05-08T23:27:49.184Z,84.30
2023-05-08T23:30:17.920Z,90.57
2023-05-08T23:32:46.659Z,82.53
2023-05-08T23:35:15.750Z,80.00
2023-05-08T23:37:44.693Z,87.30
2023-05-08T23:40:14.186Z,84.80
2023-05-08T23:42:44.270Z,89.07
2023-05-08T23:45:13.390Z,97.60
2023-05-08T23:47:42.389Z,83.23
2023-05-08T23:50:12.047Z,93.97
2023-05-08T23:52:40.708Z,104.77
2023-05-08T23:55:10.688Z,117.23
2023-05-08T23:57:39.477Z,110.63
